sensor_id;sensor_type;location;lat;lon;timestamp;pressure;altitude;pressure_sealevel;temperature;humidity
59073;BME280;44859;51.934;15.554;2024-03-08T00:01:15;100558.46;;;-0.79;81.45
59073;BME280;44859;51.934;15.554;2024-03-08T00:06:20;100557.14;;;-0.92;82.10
59073;BME280;44859;51.934;15.554;2024-03-08T00:11:22;100552.34;;;-0.88;82.62
59073;BME280;44859;51.934;15.554;2024-03-08T00:16:27;100556.25;;;-0.95;82.80
59073;BME280;44859;51.934;15.554;2024-03-08T00:21:29;100550.13;;;-0.86;82.97
59073;BME280;44859;51.934;15.554;2024-03-08T00:26:31;100551.23;;;-0.78;82.96
59073;BME280;44859;51.934;15.554;2024-03-08T00:31:34;100546.36;;;-0.82;83.06
59073;BME280;44859;51.934;15.554;2024-03-08T00:36:40;100545.73;;;-0.94;83.16
59073;BME280;44859;51.934;15.554;2024-03-08T00:41:41;100546.91;;;-1.13;83.34
59073;BME280;44859;51.934;15.554;2024-03-08T00:46:43;100542.62;;;-1.26;84.04
59073;BME280;44859;51.934;15.554;2024-03-08T00:51:45;100544.80;;;-1.45;84.55
59073;BME280;44859;51.934;15.554;2024-03-08T00:56:47;100545.23;;;-1.52;84.99
59073;BME280;44859;51.934;15.554;2024-03-08T01:01:49;100540.66;;;-1.60;85.35
59073;BME280;44859;51.934;15.554;2024-03-08T01:06:51;100539.09;;;-1.76;85.66
59073;BME280;44859;51.934;15.554;2024-03-08T01:11:54;100535.98;;;-1.88;86.44
59073;BME280;44859;51.934;15.554;2024-03-08T01:16:57;100531.38;;;-1.98;86.77
59073;BME280;44859;51.934;15.554;2024-03-08T01:21:59;100526.44;;;-1.94;87.25
59073;BME280;44859;51.934;15.554;2024-03-08T01:27:06;100518.71;;;-1.79;87.61
59073;BME280;44859;51.934;15.554;2024-03-08T01:32:11;100516.83;;;-1.51;87.43
59073;BME280;44859;51.934;15.554;2024-03-08T01:37:13;100510.90;;;-1.28;86.97
59073;BME280;44859;51.934;15.554;2024-03-08T01:42:16;100503.48;;;-1.13;86.67
59073;BME280;44859;51.934;15.554;2024-03-08T01:47:19;100493.95;;;-1.00;86.32
59073;BME280;44859;51.934;15.554;2024-03-08T01:52:24;100489.58;;;-0.88;86.15
59073;BME280;44859;51.934;15.554;2024-03-08T01:57:29;100486.85;;;-0.83;85.83
59073;BME280;44859;51.934;15.554;2024-03-08T02:02:54;100480.85;;;-0.80;85.60
59073;BME280;44859;51.934;15.554;2024-03-08T02:07:56;100483.81;;;-0.77;85.40
59073;BME280;44859;51.934;15.554;2024-03-08T02:13:01;100482.59;;;-0.79;85.08
59073;BME280;44859;51.934;15.554;2024-03-08T02:18:03;100482.17;;;-0.86;85.15
59073;BME280;44859;51.934;15.554;2024-03-08T02:23:06;100481.79;;;-0.91;85.27
59073;BME280;44859;51.934;15.554;2024-03-08T02:28:10;100470.70;;;-0.97;85.02
59073;BME280;44859;51.934;15.554;2024-03-08T02:33:13;100467.88;;;-1.04;85.23
59073;BME280;44859;51.934;15.554;2024-03-08T02:38:20;100465.90;;;-1.14;85.20
59073;BME280;44859;51.934;15.554;2024-03-08T02:43:22;100463.77;;;-1.20;85.38
59073;BME280;44859;51.934;15.554;2024-03-08T02:48:26;100459.64;;;-1.19;85.47
59073;BME280;44859;51.934;15.554;2024-03-08T02:53:28;100462.54;;;-1.22;85.83
59073;BME280;44859;51.934;15.554;2024-03-08T02:58:33;100455.12;;;-1.22;86.05
59073;BME280;44859;51.934;15.554;2024-03-08T03:03:36;100451.47;;;-1.26;85.68
59073;BME280;44859;51.934;15.554;2024-03-08T03:08:38;100448.45;;;-1.33;86.03
59073;BME280;44859;51.934;15.554;2024-03-08T03:13:40;100446.70;;;-1.36;86.16
59073;BME280;44859;51.934;15.554;2024-03-08T03:18:44;100452.20;;;-1.38;86.20
59073;BME280;44859;51.934;15.554;2024-03-08T03:23:46;100451.81;;;-1.42;86.43
59073;BME280;44859;51.934;15.554;2024-03-08T03:28:48;100447.96;;;-1.47;86.54
59073;BME280;44859;51.934;15.554;2024-03-08T03:33:50;100448.45;;;-1.50;86.53
59073;BME280;44859;51.934;15.554;2024-03-08T03:38:53;100443.69;;;-1.60;86.94
59073;BME280;44859;51.934;15.554;2024-03-08T03:44:07;100442.92;;;-1.68;87.28
59073;BME280;44859;51.934;15.554;2024-03-08T03:49:09;100446.46;;;-1.74;87.70
59073;BME280;44859;51.934;15.554;2024-03-08T03:54:12;100447.12;;;-1.76;88.03
59073;BME280;44859;51.934;15.554;2024-03-08T03:59:14;100444.13;;;-1.82;88.04
59073;BME280;44859;51.934;15.554;2024-03-08T04:04:17;100445.10;;;-1.87;88.36
59073;BME280;44859;51.934;15.554;2024-03-08T04:09:19;100441.86;;;-1.97;88.52
59073;BME280;44859;51.934;15.554;2024-03-08T04:14:21;100437.47;;;-2.04;88.87
59073;BME280;44859;51.934;15.554;2024-03-08T04:19:24;100436.58;;;-2.07;89.25
59073;BME280;44859;51.934;15.554;2024-03-08T04:24:28;100434.13;;;-2.10;89.58
59073;BME280;44859;51.934;15.554;2024-03-08T04:29:30;100437.38;;;-2.12;90.05
59073;BME280;44859;51.934;15.554;2024-03-08T04:34:32;100437.70;;;-2.15;90.02
59073;BME280;44859;51.934;15.554;2024-03-08T04:39:36;100440.14;;;-2.12;90.11
59073;BME280;44859;51.934;15.554;2024-03-08T04:44:38;100440.70;;;-2.07;90.45
59073;BME280;44859;51.934;15.554;2024-03-08T04:49:40;100441.42;;;-2.05;91.03
59073;BME280;44859;51.934;15.554;2024-03-08T04:54:43;100438.95;;;-2.09;90.81
59073;BME280;44859;51.934;15.554;2024-03-08T04:59:46;100436.43;;;-2.19;91.00
59073;BME280;44859;51.934;15.554;2024-03-08T05:04:48;100438.38;;;-2.28;91.49
59073;BME280;44859;51.934;15.554;2024-03-08T05:09:50;100432.09;;;-2.34;91.87
59073;BME280;44859;51.934;15.554;2024-03-08T05:14:53;100436.17;;;-2.38;92.19
59073;BME280;44859;51.934;15.554;2024-03-08T05:19:55;100440.12;;;-2.38;92.64
59073;BME280;44859;51.934;15.554;2024-03-08T05:24:58;100435.79;;;-2.41;92.98
59073;BME280;44859;51.934;15.554;2024-03-08T05:30:00;100433.30;;;-2.45;93.19
59073;BME280;44859;51.934;15.554;2024-03-08T05:35:02;100430.56;;;-2.44;93.47
59073;BME280;44859;51.934;15.554;2024-03-08T05:40:09;100434.07;;;-2.40;93.69
59073;BME280;44859;51.934;15.554;2024-03-08T05:45:18;100435.45;;;-2.39;94.04
59073;BME280;44859;51.934;15.554;2024-03-08T05:50:20;100429.75;;;-2.41;93.92
59073;BME280;44859;51.934;15.554;2024-03-08T05:55:24;100424.61;;;-2.40;94.28
59073;BME280;44859;51.934;15.554;2024-03-08T06:00:26;100427.42;;;-2.37;94.26
59073;BME280;44859;51.934;15.554;2024-03-08T06:05:29;100425.06;;;-2.32;94.55
59073;BME280;44859;51.934;15.554;2024-03-08T06:10:36;100426.09;;;-2.20;94.57
59073;BME280;44859;51.934;15.554;2024-03-08T06:15:39;100427.29;;;-2.07;94.70
59073;BME280;44859;51.934;15.554;2024-03-08T06:20:41;100421.02;;;-1.98;94.57
59073;BME280;44859;51.934;15.554;2024-03-08T06:25:46;100421.09;;;-1.93;94.28
59073;BME280;44859;51.934;15.554;2024-03-08T06:30:48;100420.64;;;-1.88;94.11
59073;BME280;44859;51.934;15.554;2024-03-08T06:35:50;100420.07;;;-1.78;94.43
59073;BME280;44859;51.934;15.554;2024-03-08T06:40:52;100421.41;;;-1.65;94.22
59073;BME280;44859;51.934;15.554;2024-03-08T06:45:55;100417.19;;;-1.58;93.69
59073;BME280;44859;51.934;15.554;2024-03-08T06:51:14;100416.32;;;-1.41;93.37
59073;BME280;44859;51.934;15.554;2024-03-08T06:56:16;100418.60;;;-1.20;92.56
59073;BME280;44859;51.934;15.554;2024-03-08T07:01:21;100422.50;;;-1.08;92.19
59073;BME280;44859;51.934;15.554;2024-03-08T07:06:27;100416.48;;;-1.05;91.55
59073;BME280;44859;51.934;15.554;2024-03-08T07:11:30;100408.49;;;-0.91;91.07
59073;BME280;44859;51.934;15.554;2024-03-08T07:16:32;100410.16;;;-0.52;90.14
59073;BME280;44859;51.934;15.554;2024-03-08T07:21:35;100409.23;;;0.04;89.42
59073;BME280;44859;51.934;15.554;2024-03-08T07:26:37;100408.85;;;0.46;87.96
59073;BME280;44859;51.934;15.554;2024-03-08T07:31:40;100408.92;;;0.92;86.93
59073;BME280;44859;51.934;15.554;2024-03-08T07:37:01;100408.92;;;1.35;85.48
59073;BME280;44859;51.934;15.554;2024-03-08T07:42:03;100403.31;;;1.63;84.03
59073;BME280;44859;51.934;15.554;2024-03-08T07:47:05;100399.73;;;1.45;82.64
59073;BME280;44859;51.934;15.554;2024-03-08T07:52:11;100401.45;;;1.50;81.64
59073;BME280;44859;51.934;15.554;2024-03-08T07:57:17;100398.17;;;1.47;81.28
59073;BME280;44859;51.934;15.554;2024-03-08T08:02:20;100400.06;;;1.50;80.84
59073;BME280;44859;51.934;15.554;2024-03-08T08:07:22;100398.49;;;1.55;80.09
59073;BME280;44859;51.934;15.554;2024-03-08T08:12:24;100393.01;;;1.94;80.12
59073;BME280;44859;51.934;15.554;2024-03-08T08:17:27;100389.92;;;2.25;79.21
59073;BME280;44859;51.934;15.554;2024-03-08T08:22:28;100385.67;;;2.43;78.15
59073;BME280;44859;51.934;15.554;2024-03-08T08:27:31;100384.16;;;2.32;77.00
59073;BME280;44859;51.934;15.554;2024-03-08T08:32:34;100378.48;;;1.88;76.26
59073;BME280;44859;51.934;15.554;2024-03-08T08:37:41;100375.06;;;1.71;75.78
59073;BME280;44859;51.934;15.554;2024-03-08T08:42:43;100375.58;;;1.74;75.25
59073;BME280;44859;51.934;15.554;2024-03-08T08:47:45;100372.46;;;1.75;74.57
59073;BME280;44859;51.934;15.554;2024-03-08T08:52:49;100371.40;;;1.80;73.65
59073;BME280;44859;51.934;15.554;2024-03-08T08:57:52;100364.11;;;1.85;73.55
59073;BME280;44859;51.934;15.554;2024-03-08T09:02:54;100359.29;;;1.80;72.88
59073;BME280;44859;51.934;15.554;2024-03-08T09:08:01;100360.11;;;1.90;72.70
59073;BME280;44859;51.934;15.554;2024-03-08T09:13:03;100354.98;;;2.13;72.73
59073;BME280;44859;51.934;15.554;2024-03-08T09:18:09;100347.99;;;2.22;72.05
59073;BME280;44859;51.934;15.554;2024-03-08T09:23:12;100341.11;;;2.66;71.92
59073;BME280;44859;51.934;15.554;2024-03-08T09:28:17;100346.27;;;2.95;70.85
59073;BME280;44859;51.934;15.554;2024-03-08T09:33:27;100341.32;;;3.06;70.07
59073;BME280;44859;51.934;15.554;2024-03-08T09:38:30;100336.23;;;3.11;69.21
59073;BME280;44859;51.934;15.554;2024-03-08T09:43:33;100332.85;;;3.02;69.07
59073;BME280;44859;51.934;15.554;2024-03-08T09:48:35;100328.58;;;3.30;68.86
59073;BME280;44859;51.934;15.554;2024-03-08T09:53:37;100318.84;;;3.62;68.76
59073;BME280;44859;51.934;15.554;2024-03-08T09:58:39;100318.10;;;3.81;68.40
59073;BME280;44859;51.934;15.554;2024-03-08T10:03:59;100310.65;;;4.06;68.09
59073;BME280;44859;51.934;15.554;2024-03-08T10:09:01;100304.63;;;4.38;66.96
59073;BME280;44859;51.934;15.554;2024-03-08T10:14:05;100300.13;;;4.36;66.17
59073;BME280;44859;51.934;15.554;2024-03-08T10:19:08;100295.84;;;4.55;65.06
59073;BME280;44859;51.934;15.554;2024-03-08T10:24:11;100290.41;;;4.89;65.72
59073;BME280;44859;51.934;15.554;2024-03-08T10:29:16;100289.14;;;5.02;64.85
59073;BME280;44859;51.934;15.554;2024-03-08T10:34:19;100291.55;;;5.03;64.36
59073;BME280;44859;51.934;15.554;2024-03-08T10:39:27;100288.01;;;5.16;63.75
59073;BME280;44859;51.934;15.554;2024-03-08T10:45:06;100288.63;;;5.29;63.39
59073;BME280;44859;51.934;15.554;2024-03-08T10:50:24;100281.24;;;5.76;62.81
59073;BME280;44859;51.934;15.554;2024-03-08T10:55:28;100276.25;;;5.98;61.67
59073;BME280;44859;51.934;15.554;2024-03-08T11:00:30;100272.13;;;5.62;60.98
59073;BME280;44859;51.934;15.554;2024-03-08T11:10:52;100258.64;;;6.07;59.92
59073;BME280;44859;51.934;15.554;2024-03-08T11:15:59;100255.08;;;6.47;59.23
59073;BME280;44859;51.934;15.554;2024-03-08T11:21:10;100247.85;;;6.78;57.70
59073;BME280;44859;51.934;15.554;2024-03-08T11:26:22;100237.52;;;6.80;56.88
59073;BME280;44859;51.934;15.554;2024-03-08T11:31:25;100236.52;;;6.98;55.68
59073;BME280;44859;51.934;15.554;2024-03-08T11:36:29;100233.09;;;7.14;56.78
59073;BME280;44859;51.934;15.554;2024-03-08T11:41:33;100226.45;;;6.95;56.32
59073;BME280;44859;51.934;15.554;2024-03-08T11:46:35;100226.11;;;7.08;55.87
59073;BME280;44859;51.934;15.554;2024-03-08T11:51:38;100220.64;;;6.71;55.33
59073;BME280;44859;51.934;15.554;2024-03-08T11:56:40;100209.66;;;6.56;56.50
59073;BME280;44859;51.934;15.554;2024-03-08T12:01:44;100207.23;;;6.63;56.13
59073;BME280;44859;51.934;15.554;2024-03-08T12:07:02;100202.60;;;6.46;55.89
59073;BME280;44859;51.934;15.554;2024-03-08T12:12:10;100194.61;;;6.58;56.15
59073;BME280;44859;51.934;15.554;2024-03-08T12:17:14;100191.23;;;6.86;55.16
59073;BME280;44859;51.934;15.554;2024-03-08T12:22:16;100175.92;;;7.03;54.73
59073;BME280;44859;51.934;15.554;2024-03-08T12:27:23;100173.61;;;7.42;54.38
59073;BME280;44859;51.934;15.554;2024-03-08T12:32:30;100164.09;;;7.57;53.48
59073;BME280;44859;51.934;15.554;2024-03-08T12:37:32;100158.45;;;7.29;53.78
59073;BME280;44859;51.934;15.554;2024-03-08T12:42:34;100154.36;;;7.13;54.31
59073;BME280;44859;51.934;15.554;2024-03-08T12:47:36;100143.64;;;7.51;53.74
59073;BME280;44859;51.934;15.554;2024-03-08T12:52:39;100139.24;;;7.80;53.82
59073;BME280;44859;51.934;15.554;2024-03-08T12:57:41;100134.02;;;8.06;52.84
59073;BME280;44859;51.934;15.554;2024-03-08T13:02:43;100131.41;;;8.06;52.32
59073;BME280;44859;51.934;15.554;2024-03-08T13:07:45;100128.20;;;8.18;51.91
59073;BME280;44859;51.934;15.554;2024-03-08T13:12:48;100122.58;;;8.24;51.50
59073;BME280;44859;51.934;15.554;2024-03-08T13:17:55;100120.14;;;8.45;51.12
59073;BME280;44859;51.934;15.554;2024-03-08T13:22:59;100115.79;;;8.02;50.87
59073;BME280;44859;51.934;15.554;2024-03-08T13:28:04;100111.11;;;7.96;51.60
59073;BME280;44859;51.934;15.554;2024-03-08T13:33:06;100103.55;;;8.39;51.19
59073;BME280;44859;51.934;15.554;2024-03-08T13:38:08;100099.88;;;8.49;50.37
59073;BME280;44859;51.934;15.554;2024-03-08T13:43:13;100090.20;;;8.56;48.31
59073;BME280;44859;51.934;15.554;2024-03-08T13:48:15;100087.46;;;8.44;48.08
59073;BME280;44859;51.934;15.554;2024-03-08T13:53:18;100089.34;;;8.19;47.95
59073;BME280;44859;51.934;15.554;2024-03-08T13:58:21;100082.64;;;8.10;46.64
59073;BME280;44859;51.934;15.554;2024-03-08T14:03:23;100078.23;;;8.52;46.26
59073;BME280;44859;51.934;15.554;2024-03-08T14:08:26;100072.72;;;8.65;45.51
59073;BME280;44859;51.934;15.554;2024-03-08T14:13:29;100065.89;;;8.93;45.16
59073;BME280;44859;51.934;15.554;2024-03-08T14:18:34;100066.34;;;9.37;44.57
59073;BME280;44859;51.934;15.554;2024-03-08T14:23:43;100062.09;;;9.38;44.23
59073;BME280;44859;51.934;15.554;2024-03-08T14:28:45;100053.29;;;9.11;44.09
59073;BME280;44859;51.934;15.554;2024-03-08T14:33:48;100047.91;;;8.73;43.82
59073;BME280;44859;51.934;15.554;2024-03-08T14:38:53;100043.33;;;8.83;45.30
59073;BME280;44859;51.934;15.554;2024-03-08T14:43:56;100044.85;;;8.41;45.33
59073;BME280;44859;51.934;15.554;2024-03-08T14:48:59;100034.23;;;8.64;46.52
59073;BME280;44859;51.934;15.554;2024-03-08T14:54:01;100034.31;;;8.62;45.53
59073;BME280;44859;51.934;15.554;2024-03-08T14:59:03;100028.38;;;8.80;45.28
59073;BME280;44859;51.934;15.554;2024-03-08T15:04:07;100022.82;;;8.60;44.13
59073;BME280;44859;51.934;15.554;2024-03-08T15:09:12;100022.41;;;8.62;43.59
59073;BME280;44859;51.934;15.554;2024-03-08T15:14:21;100021.01;;;8.42;43.34
59073;BME280;44859;51.934;15.554;2024-03-08T15:19:23;100014.59;;;8.60;43.85
59073;BME280;44859;51.934;15.554;2024-03-08T15:24:26;100012.96;;;8.42;45.20
59073;BME280;44859;51.934;15.554;2024-03-08T15:29:28;100011.57;;;7.60;45.57
59073;BME280;44859;51.934;15.554;2024-03-08T15:34:31;100012.73;;;6.84;46.80
59073;BME280;44859;51.934;15.554;2024-03-08T15:39:37;100018.15;;;6.40;48.24
59073;BME280;44859;51.934;15.554;2024-03-08T15:44:40;100007.88;;;6.15;49.02
59073;BME280;44859;51.934;15.554;2024-03-08T15:49:43;100006.65;;;5.88;49.49
59073;BME280;44859;51.934;15.554;2024-03-08T15:54:46;100005.59;;;5.67;50.37
59073;BME280;44859;51.934;15.554;2024-03-08T15:59:48;100004.08;;;5.58;51.10
59073;BME280;44859;51.934;15.554;2024-03-08T16:04:54;100005.34;;;5.42;51.81
59073;BME280;44859;51.934;15.554;2024-03-08T16:09:59;100001.78;;;5.30;52.21
59073;BME280;44859;51.934;15.554;2024-03-08T16:15:02;100001.91;;;5.26;52.75
59073;BME280;44859;51.934;15.554;2024-03-08T16:20:08;100000.02;;;5.23;53.55
59073;BME280;44859;51.934;15.554;2024-03-08T16:25:13;100001.39;;;5.10;53.71
59073;BME280;44859;51.934;15.554;2024-03-08T16:30:15;99999.55;;;4.91;54.46
59073;BME280;44859;51.934;15.554;2024-03-08T16:35:18;99999.06;;;4.73;54.84
59073;BME280;44859;51.934;15.554;2024-03-08T16:40:22;99997.76;;;4.61;55.70
59073;BME280;44859;51.934;15.554;2024-03-08T16:45:25;99992.80;;;4.48;56.28
59073;BME280;44859;51.934;15.554;2024-03-08T16:50:28;99992.01;;;4.27;56.87
59073;BME280;44859;51.934;15.554;2024-03-08T16:55:33;99987.08;;;4.12;57.40
59073;BME280;44859;51.934;15.554;2024-03-08T17:00:36;99981.90;;;4.02;57.93
59073;BME280;44859;51.934;15.554;2024-03-08T17:05:40;99982.55;;;3.94;58.44
59073;BME280;44859;51.934;15.554;2024-03-08T17:10:52;99983.08;;;3.85;58.90
59073;BME280;44859;51.934;15.554;2024-03-08T17:15:54;99980.33;;;3.74;59.33
59073;BME280;44859;51.934;15.554;2024-03-08T17:20:59;99979.38;;;3.58;59.80
59073;BME280;44859;51.934;15.554;2024-03-08T17:26:04;99975.05;;;3.47;60.28
59073;BME280;44859;51.934;15.554;2024-03-08T17:31:10;99974.55;;;3.35;60.93
59073;BME280;44859;51.934;15.554;2024-03-08T17:36:14;99975.00;;;3.18;61.49
59073;BME280;44859;51.934;15.554;2024-03-08T17:41:18;99973.77;;;3.18;62.30
59073;BME280;44859;51.934;15.554;2024-03-08T17:46:25;99974.30;;;3.17;62.56
59073;BME280;44859;51.934;15.554;2024-03-08T17:51:27;99971.70;;;3.17;62.91
59073;BME280;44859;51.934;15.554;2024-03-08T17:56:30;99966.73;;;3.13;63.42
59073;BME280;44859;51.934;15.554;2024-03-08T18:01:34;99967.10;;;3.12;63.73
59073;BME280;44859;51.934;15.554;2024-03-08T18:06:38;99960.15;;;3.02;63.83
59073;BME280;44859;51.934;15.554;2024-03-08T18:11:42;99958.48;;;2.97;64.40
59073;BME280;44859;51.934;15.554;2024-03-08T18:16:45;99954.39;;;2.92;64.65
59073;BME280;44859;51.934;15.554;2024-03-08T18:21:47;99953.63;;;2.85;65.10
59073;BME280;44859;51.934;15.554;2024-03-08T18:26:50;99947.23;;;2.83;65.09
59073;BME280;44859;51.934;15.554;2024-03-08T18:31:52;99946.22;;;2.81;65.27
59073;BME280;44859;51.934;15.554;2024-03-08T18:36:54;99938.84;;;2.75;65.59
59073;BME280;44859;51.934;15.554;2024-03-08T18:41:58;99937.23;;;2.67;65.68
59073;BME280;44859;51.934;15.554;2024-03-08T18:47:00;99934.58;;;2.59;65.87
59073;BME280;44859;51.934;15.554;2024-03-08T18:52:03;99933.06;;;2.55;66.20
59073;BME280;44859;51.934;15.554;2024-03-08T18:57:06;99928.58;;;2.54;66.32
59073;BME280;44859;51.934;15.554;2024-03-08T19:02:12;99932.09;;;2.49;66.36
59073;BME280;44859;51.934;15.554;2024-03-08T19:07:21;99928.88;;;2.44;66.72
59073;BME280;44859;51.934;15.554;2024-03-08T19:12:24;99925.22;;;2.32;66.97
59073;BME280;44859;51.934;15.554;2024-03-08T19:17:26;99919.45;;;2.22;67.39
59073;BME280;44859;51.934;15.554;2024-03-08T19:22:28;99921.53;;;2.08;67.90
59073;BME280;44859;51.934;15.554;2024-03-08T19:27:31;99918.27;;;2.06;68.53
59073;BME280;44859;51.934;15.554;2024-03-08T19:32:35;99917.77;;;2.04;68.83
59073;BME280;44859;51.934;15.554;2024-03-08T19:37:39;99919.21;;;1.99;69.11
59073;BME280;44859;51.934;15.554;2024-03-08T19:42:41;99925.21;;;1.89;69.74
59073;BME280;44859;51.934;15.554;2024-03-08T19:47:47;99921.80;;;1.83;70.30
59073;BME280;44859;51.934;15.554;2024-03-08T19:52:51;99920.09;;;1.83;70.64
59073;BME280;44859;51.934;15.554;2024-03-08T19:57:54;99917.34;;;1.79;71.07
59073;BME280;44859;51.934;15.554;2024-03-08T20:03:05;99917.01;;;1.78;71.35
59073;BME280;44859;51.934;15.554;2024-03-08T20:08:09;99915.48;;;1.75;71.83
59073;BME280;44859;51.934;15.554;2024-03-08T20:13:18;99913.33;;;1.66;72.27
59073;BME280;44859;51.934;15.554;2024-03-08T20:18:24;99906.51;;;1.57;72.63
59073;BME280;44859;51.934;15.554;2024-03-08T20:23:31;99903.87;;;1.44;73.18
59073;BME280;44859;51.934;15.554;2024-03-08T20:28:33;99897.70;;;1.37;73.58
59073;BME280;44859;51.934;15.554;2024-03-08T20:33:37;99895.11;;;1.36;74.01
59073;BME280;44859;51.934;15.554;2024-03-08T20:38:42;99895.27;;;1.37;74.26
59073;BME280;44859;51.934;15.554;2024-03-08T20:43:48;99888.76;;;1.30;74.78
59073;BME280;44859;51.934;15.554;2024-03-08T20:48:50;99882.80;;;1.21;74.96
59073;BME280;44859;51.934;15.554;2024-03-08T20:53:52;99877.28;;;1.18;75.31
59073;BME280;44859;51.934;15.554;2024-03-08T20:58:56;99870.05;;;1.13;75.80
59073;BME280;44859;51.934;15.554;2024-03-08T21:03:58;99865.79;;;1.07;76.08
59073;BME280;44859;51.934;15.554;2024-03-08T21:09:00;99861.73;;;0.98;76.60
59073;BME280;44859;51.934;15.554;2024-03-08T21:14:04;99859.13;;;0.98;76.89
59073;BME280;44859;51.934;15.554;2024-03-08T21:19:12;99847.86;;;1.01;76.89
59073;BME280;44859;51.934;15.554;2024-03-08T21:24:15;99841.10;;;1.03;77.23
59073;BME280;44859;51.934;15.554;2024-03-08T21:29:19;99836.10;;;1.02;77.34
59073;BME280;44859;51.934;15.554;2024-03-08T21:34:24;99830.09;;;0.97;77.36
59073;BME280;44859;51.934;15.554;2024-03-08T21:39:27;99823.39;;;0.92;77.57
59073;BME280;44859;51.934;15.554;2024-03-08T21:44:29;99819.65;;;0.84;77.87
59073;BME280;44859;51.934;15.554;2024-03-08T21:49:31;99816.74;;;0.80;78.18
59073;BME280;44859;51.934;15.554;2024-03-08T21:54:34;99808.98;;;0.77;78.29
59073;BME280;44859;51.934;15.554;2024-03-08T21:59:42;99803.29;;;0.76;78.59
59073;BME280;44859;51.934;15.554;2024-03-08T22:04:54;99802.17;;;0.64;78.77
59073;BME280;44859;51.934;15.554;2024-03-08T22:09:59;99802.02;;;0.61;79.13
59073;BME280;44859;51.934;15.554;2024-03-08T22:15:02;99800.19;;;0.54;79.32
59073;BME280;44859;51.934;15.554;2024-03-08T22:20:13;99801.09;;;0.48;79.75
59073;BME280;44859;51.934;15.554;2024-03-08T22:25:25;99792.81;;;0.46;80.26
59073;BME280;44859;51.934;15.554;2024-03-08T22:30:28;99792.48;;;0.45;80.23
59073;BME280;44859;51.934;15.554;2024-03-08T22:35:33;99787.85;;;0.39;80.60
59073;BME280;44859;51.934;15.554;2024-03-08T22:40:35;99786.70;;;0.32;81.06
59073;BME280;44859;51.934;15.554;2024-03-08T22:45:38;99780.49;;;0.29;81.11
59073;BME280;44859;51.934;15.554;2024-03-08T22:50:40;99778.09;;;0.26;81.46
59073;BME280;44859;51.934;15.554;2024-03-08T22:55:42;99776.73;;;0.24;81.55
59073;BME280;44859;51.934;15.554;2024-03-08T23:00:44;99774.99;;;0.25;81.59
59073;BME280;44859;51.934;15.554;2024-03-08T23:05:58;99764.64;;;0.25;81.85
59073;BME280;44859;51.934;15.554;2024-03-08T23:11:00;99760.85;;;0.21;82.06
59073;BME280;44859;51.934;15.554;2024-03-08T23:16:03;99754.97;;;0.24;82.09
59073;BME280;44859;51.934;15.554;2024-03-08T23:21:09;99752.73;;;0.24;82.51
59073;BME280;44859;51.934;15.554;2024-03-08T23:26:11;99743.95;;;0.18;82.41
59073;BME280;44859;51.934;15.554;2024-03-08T23:31:14;99741.75;;;0.12;82.74
59073;BME280;44859;51.934;15.554;2024-03-08T23:36:16;99742.88;;;0.01;82.78
59073;BME280;44859;51.934;15.554;2024-03-08T23:41:18;99742.91;;;-0.07;82.95
59073;BME280;44859;51.934;15.554;2024-03-08T23:46:20;99746.21;;;-0.08;83.32
59073;BME280;44859;51.934;15.554;2024-03-08T23:51:28;99741.55;;;-0.10;83.49
59073;BME280;44859;51.934;15.554;2024-03-08T23:56:30;99739.85;;;-0.14;83.49
